Flight Track Log - Related Links

Times and Time Zones

All times are in EDT time to prevent confusion due to time zone crossing. See the N2086E flight status page for this flight to view local times or setup timezone preferences in your user account.


Time Position Orientation Groundspeed Altitude Reporting Facility
EDT Latitude Longitude Course Direction KTS MPH feet Rate Location/Type
Wed 09:56:39 AM 27.4167 -82.5667 333° Northwest 79 91 1,200  Level Tampa TRACON
Wed 09:57:39 AM 27.4333 -82.5833 318° Northwest 80 92 1,700 550 Climbing Tampa TRACON
Wed 09:58:39 AM 27.4500 -82.5833 360° North 74 85 2,300 632 Climbing Tampa TRACON
Wed 09:59:33 AM 27.4667 -82.5833 360° North 76 87 2,900 611 Climbing Tampa TRACON
Wed 10:00:27 AM 27.5000 -82.5833 360° North 78 90 3,400 524 Climbing Tampa TRACON
Wed 10:01:39 AM 27.5167 -82.5833 360° North 84 97 4,000 318 Climbing Tampa TRACON
Wed 10:02:39 AM 27.5333 -82.6000 318° Northwest 97 112 4,100  Climbing Tampa TRACON
Wed 10:03:33 AM 27.5500 -82.6167 318° Northwest 99 114 4,000 -114 Descending Tampa TRACON
Wed 10:04:24 AM 27.5708 -82.6339 324° Northwest 92 106 3,900 -319 Descending Miami Center
Wed 10:05:26 AM 27.5917 -82.6561 317° Northwest 97 112 3,400 -435 Descending Miami Center
Wed 10:06:28 AM 27.6108 -82.6803 312° West 96 110 3,000 -195 Descending Miami Center
Wed 10:07:29 AM 27.6247 -82.7000 308° West 88 101 3,000  Level Miami Center
Wed 10:08:31 AM 27.6469 -82.7108 337° Northwest 87 100 3,000 48 Level Miami Center
Wed 10:09:33 AM 27.6683 -82.7231 333° Northwest 87 100 3,100 49 Climbing Miami Center
Wed 10:10:34 AM 27.6917 -82.7358 334° Northwest 87 100 3,100  Level Miami Center
Wed 10:11:34 AM 27.7167 -82.7500 333° Northwest 88 101 3,100  Level Tampa TRACON
Wed 10:12:34 AM 27.7333 -82.7500 360° North 89 102 3,100  Level Tampa TRACON
Wed 10:13:40 AM 27.7667 -82.7667 336° Northwest 87 100 3,100  Level Tampa TRACON
Wed 10:14:46 AM 27.8000 -82.7667 360° North 90 104 3,100  Level Tampa TRACON
Wed 10:15:46 AM 27.8167 -82.7667 360° North 88 101 3,100 -53 Level Tampa TRACON
Wed 10:16:40 AM 27.8333 -82.7667 360° North 84 97 3,000 -53 Descending Tampa TRACON
Wed 10:17:40 AM 27.8667 -82.7833 336° Northwest 83 96 3,000 50 Level Tampa TRACON
Wed 10:18:40 AM 27.8833 -82.7833 360° North 86 99 3,100 48 Climbing Tampa TRACON
Wed 10:19:46 AM 27.9167 -82.7833 360° North 91 105 3,100  Level Tampa TRACON
Wed 10:20:34 AM 27.9333 -82.7833 360° North 87 100 3,100  Level Tampa TRACON
Wed 10:21:34 AM 27.9500 -82.8000 319° Northwest 90 104 3,100  Level Tampa TRACON
Wed 10:22:34 AM 27.9833 -82.8000 360° North 87 100 3,100 -190 Level Tampa TRACON
Wed 10:23:40 AM 28.0000 -82.8000 360° North 89 102 2,700 -190 Descending Tampa TRACON
Wed 10:24:40 AM 28.0333 -82.8000 360° North 80 92 2,700 -200 Level Tampa TRACON
Wed 10:25:40 AM 28.0500 -82.7833 41° Northeast 90 104 2,300 -472 Descending Tampa TRACON
Wed 10:26:47 AM 28.0667 -82.7500 60° Northeast 94 108 1,700 -283 Descending Tampa TRACON
Wed 10:27:47 AM 28.0667 -82.7167 90° East 93 107 1,700 56 Level Tampa TRACON
Wed 10:28:35 AM 28.0500 -82.7000 139° Southeast 96 110 1,800  Climbing Tampa TRACON
Wed 10:29:41 AM 28.0333 -82.7000 180° South 93 107 1,700 -91 Descending Tampa TRACON
Wed 10:30:47 AM 28.0000 -82.7000 180° South 88 101 1,600 -190 Descending Tampa TRACON
Wed 10:31:47 AM 27.9833 -82.7000 180° South 88 101 1,300 -421 Descending Tampa TRACON
Wed 10:32:41 AM 27.9500 -82.7000 180° South 86 99 800 -526 Descending Tampa TRACON
Wed 10:33:41 AM 27.9333 -82.7000 180° South 80 92 300 -500 Descending Tampa TRACON

Login

Don't have an account? Register now (free) for customized features, flight alerts, and more!